createdAt,value
2022-11-09T00:01:48.733Z,81.63
2022-11-09T00:06:53.492Z,81.54
2022-11-09T00:11:56.996Z,81.51
2022-11-09T00:17:01.542Z,81.46
2022-11-09T00:22:04.956Z,81.43
2022-11-09T00:27:08.364Z,81.30
2022-11-09T00:32:11.881Z,81.24
2022-11-09T00:37:15.453Z,81.18
2022-11-09T00:42:18.866Z,81.18
2022-11-09T00:47:22.224Z,81.11
2022-11-09T00:52:25.636Z,81.19
2022-11-09T00:57:29.153Z,81.29
2022-11-09T01:02:32.677Z,81.39
2022-11-09T01:07:38.479Z,81.36
2022-11-09T01:12:41.853Z,81.28
2022-11-09T01:17:45.372Z,81.36
2022-11-09T01:22:48.785Z,81.43
2022-11-09T01:27:52.197Z,81.57
2022-11-09T01:32:55.716Z,81.76
2022-11-09T01:37:59.066Z,81.89
2022-11-09T01:43:22.193Z,82.00
2022-11-09T01:49:00.436Z,82.00
2022-11-09T01:54:31.804Z,82.02
2022-11-09T01:59:43.413Z,82.10
2022-11-09T02:05:01.262Z,82.15
2022-11-09T02:10:14.299Z,82.21
2022-11-09T02:15:17.879Z,82.19
2022-11-09T02:20:23.169Z,82.29
2022-11-09T02:25:26.591Z,82.33
2022-11-09T02:30:30.776Z,82.29
2022-11-09T02:35:34.136Z,82.29
2022-11-09T02:40:41.304Z,82.33
2022-11-09T02:45:44.751Z,82.28
2022-11-09T02:50:48.159Z,82.30
2022-11-09T02:55:51.493Z,82.31
2022-11-09T03:00:55.061Z,82.33
2022-11-09T03:05:58.413Z,82.32
2022-11-09T03:11:02.613Z,82.33
2022-11-09T03:16:08.838Z,82.30
2022-11-09T03:21:12.232Z,82.31
2022-11-09T03:26:16.569Z,82.21
2022-11-09T03:31:19.983Z,81.96
2022-11-09T03:36:23.409Z,82.03
2022-11-09T03:41:26.847Z,82.18
2022-11-09T03:46:30.236Z,82.18
2022-11-09T03:51:33.943Z,82.44
2022-11-09T03:56:37.360Z,82.54
2022-11-09T04:01:41.039Z,82.43
2022-11-09T04:06:44.683Z,82.38
2022-11-09T04:11:48.148Z,82.29
2022-11-09T04:16:51.523Z,82.24
2022-11-09T04:21:55.201Z,82.24
2022-11-09T04:26:58.500Z,82.31
2022-11-09T04:32:02.072Z,82.33
2022-11-09T04:37:05.597Z,82.43
2022-11-09T04:42:09.002Z,82.43
2022-11-09T04:47:12.418Z,82.50
2022-11-09T04:52:15.801Z,82.48
2022-11-09T04:57:19.247Z,82.41
2022-11-09T05:02:22.712Z,82.43
2022-11-09T05:07:26.180Z,82.40
2022-11-09T05:12:29.693Z,82.41
2022-11-09T05:17:33.118Z,82.40
2022-11-09T05:22:59.666Z,82.49
2022-11-09T05:28:03.488Z,82.54
2022-11-09T05:33:06.917Z,82.51
2022-11-09T05:38:10.415Z,82.53
2022-11-09T05:43:13.831Z,82.56
2022-11-09T05:48:18.969Z,82.63
2022-11-09T05:53:22.743Z,82.51
2022-11-09T05:58:26.539Z,82.57
2022-11-09T06:03:29.955Z,82.68
2022-11-09T06:08:33.760Z,82.81
2022-11-09T06:13:37.811Z,82.85
2022-11-09T06:18:41.212Z,82.99
2022-11-09T06:23:45.315Z,83.00
2022-11-09T06:28:48.874Z,83.10
2022-11-09T06:33:52.583Z,83.06
2022-11-09T06:38:55.993Z,82.96
2022-11-09T06:43:59.405Z,82.79
2022-11-09T06:49:03.026Z,82.64
2022-11-09T06:54:06.541Z,82.38
2022-11-09T06:59:10.054Z,82.19
2022-11-09T07:04:15.555Z,82.11
2022-11-09T07:09:19.546Z,82.07
2022-11-09T07:14:23.368Z,82.07
2022-11-09T07:19:26.878Z,81.90
2022-11-09T07:24:30.400Z,81.79
2022-11-09T07:29:33.917Z,81.64
2022-11-09T07:34:37.333Z,81.65
2022-11-09T07:39:40.880Z,81.54
2022-11-09T07:44:44.280Z,81.31
2022-11-09T07:49:47.968Z,81.36
2022-11-09T07:54:55.186Z,81.40
2022-11-09T08:00:00.038Z,81.39
2022-11-09T08:05:04.696Z,81.25
2022-11-09T08:10:09.278Z,81.11
2022-11-09T08:15:15.405Z,81.25
2022-11-09T08:20:20.344Z,80.97
2022-11-09T08:25:24.381Z,81.15
2022-11-09T08:30:28.063Z,81.16
2022-11-09T08:35:31.951Z,81.00
2022-11-09T08:40:35.748Z,81.03
2022-11-09T08:45:41.998Z,81.03
2022-11-09T08:50:45.843Z,80.71
2022-11-09T08:55:50.972Z,80.75
2022-11-09T09:00:54.515Z,80.71
2022-11-09T09:05:58.134Z,80.68
2022-11-09T09:11:07.378Z,80.60
2022-11-09T09:16:15.599Z,80.48
2022-11-09T09:21:19.046Z,80.28
2022-11-09T09:26:22.684Z,80.24
2022-11-09T09:31:26.366Z,80.15
2022-11-09T09:36:30.088Z,80.00
2022-11-09T09:41:43.064Z,80.04
2022-11-09T09:47:12.959Z,79.93
2022-11-09T09:52:26.527Z,79.96
2022-11-09T09:57:31.669Z,79.89
2022-11-09T10:02:37.062Z,79.78
2022-11-09T10:07:47.265Z,79.63
2022-11-09T10:13:11.514Z,79.37
2022-11-09T10:19:12.055Z,79.16
2022-11-09T10:24:44.435Z,78.92
2022-11-09T10:29:59.898Z,78.71
2022-11-09T10:35:31.550Z,78.18
2022-11-09T10:41:24.700Z,78.13
2022-11-09T10:46:28.115Z,77.86
2022-11-09T10:51:43.405Z,77.35
2022-11-09T10:57:05.947Z,77.50
2022-11-09T11:02:44.917Z,77.26
2022-11-09T11:07:48.351Z,77.12
2022-11-09T11:13:22.519Z,76.71
2022-11-09T11:18:27.935Z,76.70
2022-11-09T11:23:32.747Z,76.68
2022-11-09T11:29:02.411Z,76.18
2022-11-09T11:34:32.044Z,76.19
2022-11-09T11:40:03.215Z,76.21
2022-11-09T11:45:39.651Z,75.69
2022-11-09T11:50:45.595Z,75.67
2022-11-09T11:56:17.640Z,75.89
2022-11-09T12:01:41.563Z,75.60
2022-11-09T12:07:29.179Z,75.38
2022-11-09T12:13:07.756Z,75.33
2022-11-09T12:18:42.576Z,75.26
2022-11-09T12:24:13.845Z,75.50
2022-11-09T12:29:25.652Z,75.51
2022-11-09T12:34:47.195Z,75.19
2022-11-09T12:39:54.805Z,75.24
2022-11-09T12:45:22.184Z,75.35
2022-11-09T12:50:27.729Z,75.26
2022-11-09T12:55:55.470Z,75.11
2022-11-09T13:01:06.727Z,75.12
2022-11-09T13:06:21.435Z,75.15
2022-11-09T13:11:41.959Z,75.10
2022-11-09T13:25:02.191Z,75.28
2022-11-09T13:30:24.301Z,75.34
2022-11-09T13:35:42.841Z,75.43
2022-11-09T13:40:51.050Z,75.53
2022-11-09T13:46:01.618Z,75.63
2022-11-09T13:51:15.985Z,75.71
2022-11-09T13:56:37.645Z,75.94
2022-11-09T14:01:54.157Z,76.11
2022-11-09T14:07:01.181Z,76.29
2022-11-09T14:12:55.721Z,76.44
2022-11-09T14:18:38.395Z,76.57
2022-11-09T14:23:42.474Z,76.75
2022-11-09T14:28:46.247Z,76.82
2022-11-09T14:34:04.010Z,76.93
2022-11-09T14:39:28.502Z,77.12
2022-11-09T14:44:40.703Z,77.24
2022-11-09T14:49:46.298Z,77.31
2022-11-09T14:54:50.481Z,77.43
2022-11-09T14:59:55.312Z,77.54
2022-11-09T15:05:06.035Z,77.69
2022-11-09T15:10:20.671Z,77.83
2022-11-09T15:15:28.927Z,77.82
2022-11-09T15:20:34.627Z,77.81
2022-11-09T15:25:47.334Z,77.95
2022-11-09T15:30:57.052Z,78.14
2022-11-09T15:36:07.799Z,78.29
2022-11-09T15:41:20.803Z,78.40
2022-11-09T15:46:33.369Z,78.56
2022-11-09T15:51:36.782Z,78.84
2022-11-09T15:56:41.084Z,79.12
2022-11-09T16:01:44.470Z,79.43
2022-11-09T16:06:48.275Z,79.69
2022-11-09T16:11:51.767Z,79.75
2022-11-09T16:16:55.178Z,79.89
2022-11-09T16:21:59.272Z,79.96
2022-11-09T16:27:04.476Z,79.96
2022-11-09T16:32:15.068Z,80.08
2022-11-09T16:37:20.630Z,80.18
2022-11-09T16:42:24.646Z,80.29
2022-11-09T16:47:28.266Z,80.25
2022-11-09T16:52:31.779Z,80.29
2022-11-09T16:57:35.860Z,80.35
2022-11-09T17:02:39.322Z,80.52
2022-11-09T17:07:43.045Z,80.64
2022-11-09T17:12:46.870Z,80.64
2022-11-09T17:17:50.280Z,80.64
2022-11-09T17:22:54.210Z,80.68
2022-11-09T17:27:57.724Z,80.73
2022-11-09T17:33:01.342Z,80.78
2022-11-09T17:38:04.758Z,81.03
2022-11-09T17:43:08.279Z,80.99
2022-11-09T17:48:11.992Z,81.00
2022-11-09T17:53:15.494Z,80.97
2022-11-09T17:58:19.838Z,81.04
2022-11-09T18:03:24.386Z,81.26
2022-11-09T18:08:27.899Z,81.32
2022-11-09T18:13:31.864Z,81.36
2022-11-09T18:18:35.545Z,81.49
2022-11-09T18:23:38.961Z,81.56
2022-11-09T18:28:43.604Z,81.50
2022-11-09T18:33:47.838Z,81.60
2022-11-09T18:38:55.354Z,81.73
2022-11-09T18:43:58.763Z,81.74
2022-11-09T18:49:02.387Z,81.84
2022-11-09T18:54:05.906Z,81.82
2022-11-09T18:59:12.791Z,81.84
2022-11-09T19:04:17.679Z,81.92
2022-11-09T19:09:30.661Z,82.01
2022-11-09T19:14:41.302Z,82.08
2022-11-09T19:19:44.778Z,82.17
2022-11-09T19:24:48.347Z,82.21
2022-11-09T19:29:51.829Z,82.14
2022-11-09T19:34:55.231Z,82.22
2022-11-09T19:39:58.739Z,82.26
2022-11-09T19:45:02.666Z,82.32
2022-11-09T19:50:08.220Z,82.34
2022-11-09T19:55:11.599Z,82.35
2022-11-09T20:00:16.278Z,82.38
2022-11-09T20:05:19.742Z,82.39
2022-11-09T20:10:24.420Z,82.31
2022-11-09T20:15:27.863Z,82.31
2022-11-09T20:20:31.483Z,82.20
2022-11-09T20:25:34.999Z,82.21
2022-11-09T20:30:41.852Z,82.21
2022-11-09T20:35:54.104Z,82.22
2022-11-09T20:41:01.014Z,82.24
2022-11-09T20:46:16.377Z,82.25
2022-11-09T20:51:20.919Z,82.29
2022-11-09T20:56:25.118Z,82.28
2022-11-09T21:01:28.648Z,82.26
2022-11-09T21:06:32.462Z,82.26
2022-11-09T21:11:36.161Z,82.24
2022-11-09T21:16:40.550Z,82.20
2022-11-09T21:21:44.803Z,82.27
2022-11-09T21:27:06.858Z,82.34
2022-11-09T21:32:12.343Z,82.43
2022-11-09T21:37:15.804Z,82.48
2022-11-09T21:42:19.351Z,82.54
2022-11-09T21:47:24.483Z,82.55
2022-11-09T21:52:27.958Z,82.54
2022-11-09T21:57:31.329Z,82.55
2022-11-09T22:02:34.743Z,82.50
2022-11-09T22:07:38.165Z,82.47
2022-11-09T22:13:00.320Z,82.46
2022-11-09T22:18:03.835Z,82.46
2022-11-09T22:23:08.466Z,82.44
2022-11-09T22:28:11.986Z,82.46
2022-11-09T22:33:15.859Z,82.43
2022-11-09T22:38:19.226Z,82.38
2022-11-09T22:43:23.013Z,82.39
2022-11-09T22:48:26.675Z,82.39
2022-11-09T22:53:31.000Z,82.40
2022-11-09T22:58:34.517Z,82.42
2022-11-09T23:03:38.533Z,82.50
2022-11-09T23:08:42.057Z,82.54
2022-11-09T23:13:48.768Z,82.50
2022-11-09T23:18:56.110Z,82.63
2022-11-09T23:24:04.086Z,82.68
2022-11-09T23:29:07.501Z,82.82
2022-11-09T23:34:11.014Z,82.71
2022-11-09T23:39:14.527Z,82.75
2022-11-09T23:44:17.909Z,82.81
2022-11-09T23:49:21.209Z,82.89
2022-11-09T23:54:24.563Z,82.88
2022-11-09T23:59:28.084Z,82.96
